sensor_id;sensor_type;location;lat;lon;timestamp;P1;durP1;ratioP1;P2;durP2;ratioP2
27424;SDS011;15244;49.088;11.886;2024-03-07T00:00:12;42.22;;;27.83;;
27424;SDS011;15244;49.088;11.886;2024-03-07T00:05:20;43.78;;;28.05;;
27424;SDS011;15244;49.088;11.886;2024-03-07T00:10:26;44.72;;;27.95;;
27424;SDS011;15244;49.088;11.886;2024-03-07T00:15:29;40.17;;;26.95;;
27424;SDS011;15244;49.088;11.886;2024-03-07T00:20:33;44.90;;;28.95;;
27424;SDS011;15244;49.088;11.886;2024-03-07T00:25:35;40.20;;;27.23;;
27424;SDS011;15244;49.088;11.886;2024-03-07T00:30:37;41.95;;;28.30;;
27424;SDS011;15244;49.088;11.886;2024-03-07T00:35:39;46.00;;;28.73;;
27424;SDS011;15244;49.088;11.886;2024-03-07T00:40:41;45.80;;;29.13;;
27424;SDS011;15244;49.088;11.886;2024-03-07T00:45:44;45.60;;;29.42;;
27424;SDS011;15244;49.088;11.886;2024-03-07T00:50:46;42.80;;;27.20;;
27424;SDS011;15244;49.088;11.886;2024-03-07T00:55:48;47.75;;;30.10;;
27424;SDS011;15244;49.088;11.886;2024-03-07T01:00:51;42.80;;;28.75;;
27424;SDS011;15244;49.088;11.886;2024-03-07T01:05:56;50.65;;;29.45;;
27424;SDS011;15244;49.088;11.886;2024-03-07T01:10:59;47.25;;;30.13;;
27424;SDS011;15244;49.088;11.886;2024-03-07T01:16:01;48.45;;;32.47;;
27424;SDS011;15244;49.088;11.886;2024-03-07T01:21:04;55.42;;;30.95;;
27424;SDS011;15244;49.088;11.886;2024-03-07T01:26:07;48.30;;;31.77;;
27424;SDS011;15244;49.088;11.886;2024-03-07T01:31:10;46.78;;;30.60;;
27424;SDS011;15244;49.088;11.886;2024-03-07T01:36:12;46.88;;;31.77;;
27424;SDS011;15244;49.088;11.886;2024-03-07T01:41:14;44.13;;;29.73;;
27424;SDS011;15244;49.088;11.886;2024-03-07T01:46:17;45.72;;;30.42;;
27424;SDS011;15244;49.088;11.886;2024-03-07T01:51:21;50.20;;;31.77;;
27424;SDS011;15244;49.088;11.886;2024-03-07T01:56:23;52.72;;;32.50;;
27424;SDS011;15244;49.088;11.886;2024-03-07T02:01:26;55.80;;;34.72;;
27424;SDS011;15244;49.088;11.886;2024-03-07T02:06:29;48.17;;;31.35;;
27424;SDS011;15244;49.088;11.886;2024-03-07T02:11:31;53.15;;;34.25;;
27424;SDS011;15244;49.088;11.886;2024-03-07T02:16:34;54.08;;;33.42;;
27424;SDS011;15244;49.088;11.886;2024-03-07T02:21:36;49.40;;;32.45;;
27424;SDS011;15244;49.088;11.886;2024-03-07T02:26:39;53.47;;;32.70;;
27424;SDS011;15244;49.088;11.886;2024-03-07T02:31:41;54.90;;;34.00;;
27424;SDS011;15244;49.088;11.886;2024-03-07T02:36:44;48.47;;;31.30;;
27424;SDS011;15244;49.088;11.886;2024-03-07T02:41:47;50.65;;;32.30;;
27424;SDS011;15244;49.088;11.886;2024-03-07T02:46:52;49.70;;;32.85;;
27424;SDS011;15244;49.088;11.886;2024-03-07T02:51:56;50.00;;;32.65;;
27424;SDS011;15244;49.088;11.886;2024-03-07T02:56:58;47.35;;;31.02;;
27424;SDS011;15244;49.088;11.886;2024-03-07T03:02:01;50.15;;;32.00;;
27424;SDS011;15244;49.088;11.886;2024-03-07T03:07:03;52.33;;;32.05;;
27424;SDS011;15244;49.088;11.886;2024-03-07T03:12:06;47.25;;;30.05;;
27424;SDS011;15244;49.088;11.886;2024-03-07T03:17:09;47.65;;;29.63;;
27424;SDS011;15244;49.088;11.886;2024-03-07T03:22:11;50.08;;;31.73;;
27424;SDS011;15244;49.088;11.886;2024-03-07T03:27:14;44.15;;;30.02;;
27424;SDS011;15244;49.088;11.886;2024-03-07T03:32:16;47.78;;;30.83;;
27424;SDS011;15244;49.088;11.886;2024-03-07T03:37:18;47.97;;;29.95;;
27424;SDS011;15244;49.088;11.886;2024-03-07T03:42:21;50.50;;;30.58;;
27424;SDS011;15244;49.088;11.886;2024-03-07T03:47:23;47.35;;;29.48;;
27424;SDS011;15244;49.088;11.886;2024-03-07T03:52:24;44.35;;;29.60;;
27424;SDS011;15244;49.088;11.886;2024-03-07T03:57:28;46.55;;;29.80;;
27424;SDS011;15244;49.088;11.886;2024-03-07T04:02:30;46.25;;;30.65;;
27424;SDS011;15244;49.088;11.886;2024-03-07T04:07:33;47.60;;;30.05;;
27424;SDS011;15244;49.088;11.886;2024-03-07T04:12:39;48.45;;;31.02;;
27424;SDS011;15244;49.088;11.886;2024-03-07T04:17:42;44.28;;;29.10;;
27424;SDS011;15244;49.088;11.886;2024-03-07T04:22:44;44.50;;;28.10;;
27424;SDS011;15244;49.088;11.886;2024-03-07T04:27:46;42.28;;;29.83;;
27424;SDS011;15244;49.088;11.886;2024-03-07T04:32:48;45.65;;;29.15;;
27424;SDS011;15244;49.088;11.886;2024-03-07T04:37:50;43.58;;;28.27;;
27424;SDS011;15244;49.088;11.886;2024-03-07T04:42:53;43.40;;;28.85;;
27424;SDS011;15244;49.088;11.886;2024-03-07T04:47:55;44.03;;;29.17;;
27424;SDS011;15244;49.088;11.886;2024-03-07T04:52:57;50.33;;;30.77;;
27424;SDS011;15244;49.088;11.886;2024-03-07T04:57:59;46.53;;;29.88;;
27424;SDS011;15244;49.088;11.886;2024-03-07T05:03:01;45.20;;;29.75;;
27424;SDS011;15244;49.088;11.886;2024-03-07T05:08:04;48.55;;;29.83;;
27424;SDS011;15244;49.088;11.886;2024-03-07T05:13:07;46.15;;;29.88;;
27424;SDS011;15244;49.088;11.886;2024-03-07T05:18:09;51.08;;;29.60;;
27424;SDS011;15244;49.088;11.886;2024-03-07T05:23:11;46.60;;;29.85;;
27424;SDS011;15244;49.088;11.886;2024-03-07T05:28:16;45.72;;;29.27;;
27424;SDS011;15244;49.088;11.886;2024-03-07T05:33:18;46.28;;;28.95;;
27424;SDS011;15244;49.088;11.886;2024-03-07T05:38:22;45.85;;;28.48;;
27424;SDS011;15244;49.088;11.886;2024-03-07T05:43:24;42.33;;;27.92;;
27424;SDS011;15244;49.088;11.886;2024-03-07T05:48:28;42.42;;;26.85;;
27424;SDS011;15244;49.088;11.886;2024-03-07T05:53:30;43.03;;;27.95;;
27424;SDS011;15244;49.088;11.886;2024-03-07T05:58:39;43.78;;;27.48;;
27424;SDS011;15244;49.088;11.886;2024-03-07T06:03:52;43.05;;;28.08;;
27424;SDS011;15244;49.088;11.886;2024-03-07T06:08:55;44.95;;;27.52;;
27424;SDS011;15244;49.088;11.886;2024-03-07T06:13:58;41.92;;;26.40;;
27424;SDS011;15244;49.088;11.886;2024-03-07T06:19:00;43.95;;;25.55;;
27424;SDS011;15244;49.088;11.886;2024-03-07T06:24:08;40.13;;;26.80;;
27424;SDS011;15244;49.088;11.886;2024-03-07T06:29:13;42.63;;;27.17;;
27424;SDS011;15244;49.088;11.886;2024-03-07T06:34:19;39.53;;;25.83;;
27424;SDS011;15244;49.088;11.886;2024-03-07T06:39:21;42.00;;;27.67;;
27424;SDS011;15244;49.088;11.886;2024-03-07T06:44:24;42.90;;;26.30;;
27424;SDS011;15244;49.088;11.886;2024-03-07T06:49:27;41.40;;;25.48;;
27424;SDS011;15244;49.088;11.886;2024-03-07T06:54:29;41.72;;;26.40;;
27424;SDS011;15244;49.088;11.886;2024-03-07T06:59:31;40.00;;;25.15;;
27424;SDS011;15244;49.088;11.886;2024-03-07T07:04:34;40.70;;;26.15;;
27424;SDS011;15244;49.088;11.886;2024-03-07T07:09:49;36.40;;;25.02;;
27424;SDS011;15244;49.088;11.886;2024-03-07T07:14:53;39.03;;;25.05;;
27424;SDS011;15244;49.088;11.886;2024-03-07T07:19:58;41.67;;;25.33;;
27424;SDS011;15244;49.088;11.886;2024-03-07T07:25:00;40.78;;;24.20;;
27424;SDS011;15244;49.088;11.886;2024-03-07T07:30:02;37.53;;;23.75;;
27424;SDS011;15244;49.088;11.886;2024-03-07T07:35:05;36.45;;;23.15;;
27424;SDS011;15244;49.088;11.886;2024-03-07T07:45:16;35.30;;;21.58;;
27424;SDS011;15244;49.088;11.886;2024-03-07T07:50:19;37.40;;;22.52;;
27424;SDS011;15244;49.088;11.886;2024-03-07T08:00:27;37.20;;;22.25;;
27424;SDS011;15244;49.088;11.886;2024-03-07T08:05:33;34.67;;;20.95;;
27424;SDS011;15244;49.088;11.886;2024-03-07T08:10:37;33.72;;;20.92;;
27424;SDS011;15244;49.088;11.886;2024-03-07T08:15:42;36.13;;;22.35;;
27424;SDS011;15244;49.088;11.886;2024-03-07T08:20:44;31.60;;;19.92;;
27424;SDS011;15244;49.088;11.886;2024-03-07T08:25:46;34.38;;;20.63;;
27424;SDS011;15244;49.088;11.886;2024-03-07T08:30:48;31.60;;;20.15;;
27424;SDS011;15244;49.088;11.886;2024-03-07T08:35:50;37.60;;;22.30;;
27424;SDS011;15244;49.088;11.886;2024-03-07T08:40:54;32.30;;;20.58;;
27424;SDS011;15244;49.088;11.886;2024-03-07T08:45:57;36.58;;;21.85;;
27424;SDS011;15244;49.088;11.886;2024-03-07T08:50:59;35.45;;;21.50;;
27424;SDS011;15244;49.088;11.886;2024-03-07T08:56:02;33.72;;;20.88;;
27424;SDS011;15244;49.088;11.886;2024-03-07T09:01:07;37.05;;;21.67;;
27424;SDS011;15244;49.088;11.886;2024-03-07T09:06:09;32.38;;;20.40;;
27424;SDS011;15244;49.088;11.886;2024-03-07T09:11:15;31.67;;;20.23;;
27424;SDS011;15244;49.088;11.886;2024-03-07T09:16:17;30.50;;;19.40;;
27424;SDS011;15244;49.088;11.886;2024-03-07T09:21:19;35.47;;;20.90;;
27424;SDS011;15244;49.088;11.886;2024-03-07T09:26:22;30.90;;;19.33;;
27424;SDS011;15244;49.088;11.886;2024-03-07T09:31:25;31.00;;;19.58;;
27424;SDS011;15244;49.088;11.886;2024-03-07T09:36:27;35.88;;;20.33;;
27424;SDS011;15244;49.088;11.886;2024-03-07T09:41:29;33.40;;;20.05;;
27424;SDS011;15244;49.088;11.886;2024-03-07T09:46:32;29.63;;;18.73;;
27424;SDS011;15244;49.088;11.886;2024-03-07T09:51:34;32.63;;;19.60;;
27424;SDS011;15244;49.088;11.886;2024-03-07T09:56:37;28.25;;;18.63;;
27424;SDS011;15244;49.088;11.886;2024-03-07T10:01:41;29.58;;;19.10;;
27424;SDS011;15244;49.088;11.886;2024-03-07T10:06:47;30.10;;;19.33;;
27424;SDS011;15244;49.088;11.886;2024-03-07T10:11:58;31.23;;;18.50;;
27424;SDS011;15244;49.088;11.886;2024-03-07T10:17:01;30.75;;;19.10;;
27424;SDS011;15244;49.088;11.886;2024-03-07T10:22:03;30.05;;;17.30;;
27424;SDS011;15244;49.088;11.886;2024-03-07T10:27:08;30.17;;;19.00;;
27424;SDS011;15244;49.088;11.886;2024-03-07T10:32:11;27.13;;;17.48;;
27424;SDS011;15244;49.088;11.886;2024-03-07T10:37:14;24.13;;;16.38;;
27424;SDS011;15244;49.088;11.886;2024-03-07T10:42:22;22.65;;;15.80;;
27424;SDS011;15244;49.088;11.886;2024-03-07T10:47:31;27.17;;;15.85;;
27424;SDS011;15244;49.088;11.886;2024-03-07T10:52:39;24.95;;;15.52;;
27424;SDS011;15244;49.088;11.886;2024-03-07T10:57:49;23.88;;;15.48;;
27424;SDS011;15244;49.088;11.886;2024-03-07T11:02:57;27.20;;;16.10;;
27424;SDS011;15244;49.088;11.886;2024-03-07T11:08:00;22.23;;;14.48;;
27424;SDS011;15244;49.088;11.886;2024-03-07T11:13:11;22.00;;;15.35;;
27424;SDS011;15244;49.088;11.886;2024-03-07T11:18:15;21.52;;;14.82;;
27424;SDS011;15244;49.088;11.886;2024-03-07T11:23:26;21.45;;;14.13;;
27424;SDS011;15244;49.088;11.886;2024-03-07T11:28:38;19.08;;;13.23;;
27424;SDS011;15244;49.088;11.886;2024-03-07T11:34:11;21.00;;;14.25;;
27424;SDS011;15244;49.088;11.886;2024-03-07T11:44:49;16.35;;;12.25;;
27424;SDS011;15244;49.088;11.886;2024-03-07T11:49:52;21.17;;;12.95;;
27424;SDS011;15244;49.088;11.886;2024-03-07T11:54:54;17.35;;;11.57;;
27424;SDS011;15244;49.088;11.886;2024-03-07T12:00:06;19.27;;;14.10;;
27424;SDS011;15244;49.088;11.886;2024-03-07T12:05:15;17.63;;;12.15;;
27424;SDS011;15244;49.088;11.886;2024-03-07T12:10:21;16.65;;;12.20;;
27424;SDS011;15244;49.088;11.886;2024-03-07T12:15:26;16.98;;;12.73;;
27424;SDS011;15244;49.088;11.886;2024-03-07T12:20:29;16.52;;;12.32;;
27424;SDS011;15244;49.088;11.886;2024-03-07T12:25:35;15.93;;;12.75;;
27424;SDS011;15244;49.088;11.886;2024-03-07T12:30:47;18.58;;;13.68;;
27424;SDS011;15244;49.088;11.886;2024-03-07T12:35:54;20.92;;;14.02;;
27424;SDS011;15244;49.088;11.886;2024-03-07T12:41:08;18.80;;;13.45;;
27424;SDS011;15244;49.088;11.886;2024-03-07T12:46:18;21.50;;;14.55;;
27424;SDS011;15244;49.088;11.886;2024-03-07T12:51:20;17.60;;;13.18;;
27424;SDS011;15244;49.088;11.886;2024-03-07T12:56:25;14.95;;;12.00;;
27424;SDS011;15244;49.088;11.886;2024-03-07T13:01:29;16.27;;;12.93;;
27424;SDS011;15244;49.088;11.886;2024-03-07T13:06:32;17.67;;;12.52;;
27424;SDS011;15244;49.088;11.886;2024-03-07T13:11:33;17.17;;;13.40;;
27424;SDS011;15244;49.088;11.886;2024-03-07T13:16:35;21.10;;;13.73;;
27424;SDS011;15244;49.088;11.886;2024-03-07T13:21:37;15.07;;;11.88;;
27424;SDS011;15244;49.088;11.886;2024-03-07T13:26:41;16.83;;;13.07;;
27424;SDS011;15244;49.088;11.886;2024-03-07T13:31:47;18.20;;;14.35;;
27424;SDS011;15244;49.088;11.886;2024-03-07T13:36:48;18.98;;;13.98;;
27424;SDS011;15244;49.088;11.886;2024-03-07T13:41:50;18.77;;;14.32;;
27424;SDS011;15244;49.088;11.886;2024-03-07T13:46:52;18.98;;;14.90;;
27424;SDS011;15244;49.088;11.886;2024-03-07T13:51:55;19.42;;;14.88;;
27424;SDS011;15244;49.088;11.886;2024-03-07T14:02:29;20.15;;;13.90;;
27424;SDS011;15244;49.088;11.886;2024-03-07T14:35:32;19.00;;;14.63;;
27424;SDS011;15244;49.088;11.886;2024-03-07T14:40:40;20.80;;;13.90;;
27424;SDS011;15244;49.088;11.886;2024-03-07T14:45:42;19.60;;;14.07;;
27424;SDS011;15244;49.088;11.886;2024-03-07T14:50:44;18.23;;;13.48;;
27424;SDS011;15244;49.088;11.886;2024-03-07T14:55:47;21.05;;;14.10;;
27424;SDS011;15244;49.088;11.886;2024-03-07T15:00:49;18.30;;;14.13;;
27424;SDS011;15244;49.088;11.886;2024-03-07T15:05:58;19.38;;;13.05;;
27424;SDS011;15244;49.088;11.886;2024-03-07T15:11:05;21.83;;;14.80;;
27424;SDS011;15244;49.088;11.886;2024-03-07T15:16:15;20.00;;;14.13;;
27424;SDS011;15244;49.088;11.886;2024-03-07T15:21:33;18.60;;;14.75;;
27424;SDS011;15244;49.088;11.886;2024-03-07T15:26:36;22.17;;;14.68;;
27424;SDS011;15244;49.088;11.886;2024-03-07T15:31:38;17.30;;;14.18;;
27424;SDS011;15244;49.088;11.886;2024-03-07T15:36:41;19.92;;;14.52;;
27424;SDS011;15244;49.088;11.886;2024-03-07T15:41:42;18.00;;;13.35;;
27424;SDS011;15244;49.088;11.886;2024-03-07T15:46:44;21.35;;;13.40;;
27424;SDS011;15244;49.088;11.886;2024-03-07T15:51:46;19.42;;;13.07;;
27424;SDS011;15244;49.088;11.886;2024-03-07T15:56:47;19.48;;;12.43;;
27424;SDS011;15244;49.088;11.886;2024-03-07T16:01:50;17.83;;;12.82;;
27424;SDS011;15244;49.088;11.886;2024-03-07T16:06:52;20.35;;;13.05;;
27424;SDS011;15244;49.088;11.886;2024-03-07T16:11:57;18.05;;;13.52;;
27424;SDS011;15244;49.088;11.886;2024-03-07T16:16:59;20.95;;;14.00;;
27424;SDS011;15244;49.088;11.886;2024-03-07T16:22:00;21.95;;;14.68;;
27424;SDS011;15244;49.088;11.886;2024-03-07T16:27:03;23.50;;;14.57;;
27424;SDS011;15244;49.088;11.886;2024-03-07T16:32:07;19.42;;;13.98;;
27424;SDS011;15244;49.088;11.886;2024-03-07T16:37:13;25.50;;;14.77;;
27424;SDS011;15244;49.088;11.886;2024-03-07T16:42:16;22.65;;;14.82;;
27424;SDS011;15244;49.088;11.886;2024-03-07T16:47:18;20.75;;;14.85;;
27424;SDS011;15244;49.088;11.886;2024-03-07T16:52:25;23.05;;;14.90;;
27424;SDS011;15244;49.088;11.886;2024-03-07T16:57:27;20.65;;;15.00;;
27424;SDS011;15244;49.088;11.886;2024-03-07T17:02:29;22.50;;;15.65;;
27424;SDS011;15244;49.088;11.886;2024-03-07T17:07:31;18.60;;;14.13;;
27424;SDS011;15244;49.088;11.886;2024-03-07T17:12:33;21.83;;;14.68;;
27424;SDS011;15244;49.088;11.886;2024-03-07T17:17:34;21.13;;;15.35;;
27424;SDS011;15244;49.088;11.886;2024-03-07T17:22:40;26.23;;;16.85;;
27424;SDS011;15244;49.088;11.886;2024-03-07T17:27:43;26.40;;;16.00;;
27424;SDS011;15244;49.088;11.886;2024-03-07T17:32:52;28.10;;;18.20;;
27424;SDS011;15244;49.088;11.886;2024-03-07T17:37:54;24.83;;;16.58;;
27424;SDS011;15244;49.088;11.886;2024-03-07T17:42:55;22.73;;;16.23;;
27424;SDS011;15244;49.088;11.886;2024-03-07T17:47:57;23.05;;;17.25;;
27424;SDS011;15244;49.088;11.886;2024-03-07T17:53:03;27.40;;;18.33;;
27424;SDS011;15244;49.088;11.886;2024-03-07T17:58:13;23.48;;;16.60;;
27424;SDS011;15244;49.088;11.886;2024-03-07T18:03:16;24.17;;;16.00;;
27424;SDS011;15244;49.088;11.886;2024-03-07T18:08:18;28.48;;;16.38;;
27424;SDS011;15244;49.088;11.886;2024-03-07T18:13:41;25.52;;;17.65;;
27424;SDS011;15244;49.088;11.886;2024-03-07T18:18:44;28.05;;;18.25;;
27424;SDS011;15244;49.088;11.886;2024-03-07T18:23:48;28.23;;;16.30;;
27424;SDS011;15244;49.088;11.886;2024-03-07T18:28:51;28.27;;;17.77;;
27424;SDS011;15244;49.088;11.886;2024-03-07T18:33:54;23.40;;;16.83;;
27424;SDS011;15244;49.088;11.886;2024-03-07T18:38:57;27.08;;;17.98;;
27424;SDS011;15244;49.088;11.886;2024-03-07T18:43:59;26.52;;;17.67;;
27424;SDS011;15244;49.088;11.886;2024-03-07T18:49:04;27.20;;;18.58;;
27424;SDS011;15244;49.088;11.886;2024-03-07T18:54:11;27.52;;;17.67;;
27424;SDS011;15244;49.088;11.886;2024-03-07T18:59:15;30.60;;;18.85;;
27424;SDS011;15244;49.088;11.886;2024-03-07T19:04:17;29.70;;;19.67;;
27424;SDS011;15244;49.088;11.886;2024-03-07T19:09:21;28.52;;;18.85;;
27424;SDS011;15244;49.088;11.886;2024-03-07T19:14:24;31.85;;;19.02;;
27424;SDS011;15244;49.088;11.886;2024-03-07T19:19:25;28.40;;;18.70;;
27424;SDS011;15244;49.088;11.886;2024-03-07T19:24:31;31.42;;;18.15;;
27424;SDS011;15244;49.088;11.886;2024-03-07T19:29:33;25.85;;;17.63;;
27424;SDS011;15244;49.088;11.886;2024-03-07T19:34:36;26.35;;;18.00;;
27424;SDS011;15244;49.088;11.886;2024-03-07T19:39:39;30.85;;;20.02;;
27424;SDS011;15244;49.088;11.886;2024-03-07T19:44:42;29.35;;;18.75;;
27424;SDS011;15244;49.088;11.886;2024-03-07T19:49:46;31.88;;;19.80;;
27424;SDS011;15244;49.088;11.886;2024-03-07T19:54:49;31.73;;;18.98;;
27424;SDS011;15244;49.088;11.886;2024-03-07T19:59:51;29.83;;;19.48;;
27424;SDS011;15244;49.088;11.886;2024-03-07T20:04:54;32.47;;;20.95;;
27424;SDS011;15244;49.088;11.886;2024-03-07T20:09:58;29.13;;;19.52;;
27424;SDS011;15244;49.088;11.886;2024-03-07T20:15:00;32.75;;;18.92;;
27424;SDS011;15244;49.088;11.886;2024-03-07T20:20:03;30.50;;;18.52;;
27424;SDS011;15244;49.088;11.886;2024-03-07T20:25:15;26.20;;;18.88;;
27424;SDS011;15244;49.088;11.886;2024-03-07T20:30:19;30.13;;;19.20;;
27424;SDS011;15244;49.088;11.886;2024-03-07T20:35:21;28.13;;;19.33;;
27424;SDS011;15244;49.088;11.886;2024-03-07T20:40:23;28.25;;;18.55;;
27424;SDS011;15244;49.088;11.886;2024-03-07T20:45:29;33.10;;;20.20;;
27424;SDS011;15244;49.088;11.886;2024-03-07T20:50:32;33.88;;;19.38;;
27424;SDS011;15244;49.088;11.886;2024-03-07T20:55:41;35.50;;;20.75;;
27424;SDS011;15244;49.088;11.886;2024-03-07T21:00:44;28.67;;;19.58;;
27424;SDS011;15244;49.088;11.886;2024-03-07T21:05:50;31.00;;;20.08;;
27424;SDS011;15244;49.088;11.886;2024-03-07T21:10:52;35.40;;;20.88;;
27424;SDS011;15244;49.088;11.886;2024-03-07T21:15:58;29.30;;;19.10;;
27424;SDS011;15244;49.088;11.886;2024-03-07T21:20:59;30.70;;;19.83;;
27424;SDS011;15244;49.088;11.886;2024-03-07T21:26:02;32.53;;;20.63;;
27424;SDS011;15244;49.088;11.886;2024-03-07T21:31:04;33.78;;;21.63;;
27424;SDS011;15244;49.088;11.886;2024-03-07T21:36:05;34.70;;;20.60;;
27424;SDS011;15244;49.088;11.886;2024-03-07T21:41:09;31.95;;;20.00;;
27424;SDS011;15244;49.088;11.886;2024-03-07T21:46:11;30.27;;;19.83;;
27424;SDS011;15244;49.088;11.886;2024-03-07T21:51:15;28.80;;;18.48;;
27424;SDS011;15244;49.088;11.886;2024-03-07T21:56:25;30.67;;;19.30;;
27424;SDS011;15244;49.088;11.886;2024-03-07T22:01:34;30.33;;;19.60;;
27424;SDS011;15244;49.088;11.886;2024-03-07T22:06:42;32.13;;;20.30;;
27424;SDS011;15244;49.088;11.886;2024-03-07T22:11:44;31.13;;;20.30;;
27424;SDS011;15244;49.088;11.886;2024-03-07T22:16:53;30.58;;;19.55;;
27424;SDS011;15244;49.088;11.886;2024-03-07T22:21:56;32.92;;;20.30;;
27424;SDS011;15244;49.088;11.886;2024-03-07T22:26:58;30.08;;;18.98;;
27424;SDS011;15244;49.088;11.886;2024-03-07T22:32:01;29.45;;;19.25;;
27424;SDS011;15244;49.088;11.886;2024-03-07T22:37:03;34.30;;;19.98;;
27424;SDS011;15244;49.088;11.886;2024-03-07T22:42:08;34.45;;;20.50;;
27424;SDS011;15244;49.088;11.886;2024-03-07T22:47:13;34.17;;;20.75;;
27424;SDS011;15244;49.088;11.886;2024-03-07T22:52:18;37.10;;;20.27;;
27424;SDS011;15244;49.088;11.886;2024-03-07T22:57:21;31.92;;;19.77;;
27424;SDS011;15244;49.088;11.886;2024-03-07T23:02:23;30.95;;;19.90;;
27424;SDS011;15244;49.088;11.886;2024-03-07T23:07:25;30.08;;;19.77;;
27424;SDS011;15244;49.088;11.886;2024-03-07T23:12:30;32.28;;;19.80;;
27424;SDS011;15244;49.088;11.886;2024-03-07T23:17:31;34.00;;;20.80;;
27424;SDS011;15244;49.088;11.886;2024-03-07T23:22:33;30.75;;;19.55;;
27424;SDS011;15244;49.088;11.886;2024-03-07T23:27:35;32.28;;;20.35;;
27424;SDS011;15244;49.088;11.886;2024-03-07T23:32:38;29.63;;;19.35;;
27424;SDS011;15244;49.088;11.886;2024-03-07T23:37:42;32.63;;;19.98;;
27424;SDS011;15244;49.088;11.886;2024-03-07T23:42:45;29.08;;;19.45;;
27424;SDS011;15244;49.088;11.886;2024-03-07T23:47:47;31.25;;;19.30;;
27424;SDS011;15244;49.088;11.886;2024-03-07T23:52:52;29.33;;;19.13;;
27424;SDS011;15244;49.088;11.886;2024-03-07T23:57:58;31.60;;;19.65;;
